TTPPSYCJ

Guest
Details From TTPP - Trinidade Piarco
To SYCJ - Cheddi Jagan Intl
Flight Number -
Tags Generated
Created
Modified
Stats Distance 308 nm / 570 km
Max Altitude 0 ft / 0 m
Waypoints 3
Social Downloads 1
Likes 0
Share VATSIM

Download

Looking for another format? Having issues loading an existing format? Contact us
Advertisement - Login to hide

Notes

Generated

Route

TTPP TIM SYCJ

ID Type Via Altitude Latitude Longitude Leg Dist Tot Dist Heading (true) Name
O TTPP APT - 0 ft / 0 m 10.59533˚ -61.35186˚ - 0 nm - -
TIM VOR - 0 ft / 0 m 6.49228˚ -58.25772˚ 307 nm 307 nm 143° / 144° TIMEHRI VOR
O SYCJ APT - 0 ft / 0 m 6.49859˚ -58.26244˚ 0 nm 307 nm 323° / 323° -

Altitude Profile

Advertisement - Login to hide

Weather


0- 5 10 15 20 25 30 35+ Temperature / ° C

Clouds and Precipitation
Forecast for 2018-05-20 18:00 UTC. Updated 5 hours ago

Ground ~20,000 ft ~40,000 ft Winds

TTPP

Details ICAO TTPP (POS)
Name Trinidad/Piarco Intl
Region Trinidad and Tobago
Timezone America/Port_of_Spain (UTC-4.0)
Stats Elevation 57 ft / 17 m (AMSL)
Location 10.595370° -61.337239°
Runways 1
Magnetic Variation 15.024° W

METAR

TTPP 202100Z 11014KT 9999 VCSH SCT018 29/23 Q1011 NOSIG RMK VCSH NE

Decode

TAF

Not found

Departure Runways

ID Width Length Bearing (true) Bearing (mag) Surface Threshold Offset Overrun Length
10 151 ft / 46 m 10,486 ft / 3,196 m 89.83° 104.85° Asphalt 0 ft / 0 m 79 ft / 24 m
28 151 ft / 46 m 10,486 ft / 3,196 m 269.84° 284.86° Asphalt 0 ft / 0 m 184 ft / 56 m

SYCJ

Details ICAO SYCJ (GEO)
Name CHEDDI JAGAN INTL
Region Guyana
Timezone America/Guyana (UTC-4.0)
Stats Elevation 95 ft / 29 m (AMSL)
Location 6.498874° -58.254550°
Runways 2
Magnetic Variation 16.414° W

METAR

SYCJ 202100Z 07008KT 9999 FEW015CB 28/24 Q1010 CB S-N NOSIG

Decode

TAF

TAF SYCJ 201738Z 2018/2118 06008KT 9999 FEW012CB BKN016 BKN090 BECMG 2022/2100 06004KT 9999 SCT014 BKN090 TEMPO 2105/2110 VRB02KT 5000 SHRA BKN012 BKN034 BECMG 2110/2112 06012KT 9999 BKN018 SCT038

Decode

Destination Runways

ID Width Length Bearing (true) Bearing (mag) Surface Threshold Offset Overrun Length
06 148 ft / 45 m 7,466 ft / 2,276 m 44.78° 61.19° Asphalt 0 ft / 0 m 190 ft / 58 m
11 148 ft / 45 m 4,997 ft / 1,523 m 89.99° 106.40° Asphalt 0 ft / 0 m 0 ft / 0 m
24 148 ft / 45 m 7,466 ft / 2,276 m 224.78° 241.19° Asphalt 0 ft / 0 m 205 ft / 62 m
29 148 ft / 45 m 4,997 ft / 1,523 m 269.99° 286.40° Asphalt 0 ft / 0 m 0 ft / 0 m

Approach Navaids

Runway Type Ident Frequency Range Bearing (true) Bearing (mag) Slope Elevation
06 Localiser ITIM 109.30 MHz 18 nm / 33 km 44.78° 61.20° - 95 ft / 29 m (AMSL)
06 Glidescope ITIM 109.30 MHz 10 nm / 19 km 44.78° 61.20° 2.50° 95 ft / 29 m (AMSL)

Popular Alternatives